BRO weather

Brownsville South Padre Island International Airport
Brownsville, Texas, United States

Public forecast

Using degrees Fahrenheit for public forecast. Weather courtesy of forecast.io.

Current aviation weather report (METAR) for Brownsville South Padre Island International Airport

Retrieved 2019/12/12 07:53 UTC (8 minutes ago):

KBRO 120753Z AUTO 31006KT 10SM OVC095 11/07 A3030 RMK AO2 SLP258 T01060072

Aviation forecast (TAF) for Brownsville South Padre Island International Airport

Retrieved 2019/12/12 06:22 UTC (2 hours ago):

TAF KBRO 120520Z 1206/1306 33007KT P6SM OVC040 FM121200 33009KT P6SM BKN050